Decoded Metar for OICI (ILAM in IRAN) (IATA:N/A) | Meteo·Mobile Aviation Weather
aviador You're here:

OICI Decoded Metar

ILAM in IRAN
Report Time2019-01-18 13:00:00
UTC Time2019-01-18 14:05:49
Flight Rules vfr VFR
Wind200° at 04 kt
W.Decomp.*RWY 14: 2.2 kt HW 3.3 kt RCW
W.Rank200° ranks 25
Current wind is below 200° avg. (7.0)
Visibility9000 m
Phenomena:N/A
Clouds:Few CB 030 Hf
Scattered 035 Hf
Expected CloudBase > 1,600 ft AGL from Temp-Dew spread
CeilingNone
Temp00°C (ISA -6)
Dew Point-4°C (75% RH)
AAT-3.9°C
QNH1018 hPa
Density Alt3,553 ft
Elevation4,403 ft
Report Wrong Elevation
Raw Report
METAR OICI 181300Z 20004KT 9000 FEW030CB SCT035 00/M04 Q1018 A3006=

Extra information for OICI:More info

Metar Taf Metar & Taf Last 4 Metars F.Rules Stats Wind Profile Meteogram Temp Stats Airport Information Weather charts Add Link Nearby VenuesMetar ALERT Operation Metar Decoded Social comments